createdAt,value
2018-07-21T00:00:00.869Z,19.80
2018-07-21T00:01:00.846Z,19.64
2018-07-21T00:02:00.827Z,19.71
2018-07-21T00:03:00.799Z,19.72
2018-07-21T00:04:00.777Z,19.78
2018-07-21T00:05:00.753Z,19.76
2018-07-21T00:06:00.728Z,19.75
2018-07-21T00:07:00.705Z,19.78
2018-07-21T00:08:00.681Z,19.75
2018-07-21T00:09:00.658Z,19.82
2018-07-21T00:10:00.637Z,19.76
2018-07-21T00:11:00.613Z,19.75
2018-07-21T00:12:00.591Z,19.65
2018-07-21T00:13:00.568Z,19.67
2018-07-21T00:14:00.547Z,19.64
2018-07-21T00:15:00.519Z,19.60
2018-07-21T00:16:00.495Z,19.61
2018-07-21T00:17:00.474Z,19.49
2018-07-21T00:18:00.450Z,19.47
2018-07-21T00:19:00.629Z,19.35
2018-07-21T00:20:00.609Z,19.38
2018-07-21T00:21:00.582Z,19.38
2018-07-21T00:22:00.563Z,19.27
2018-07-21T00:23:00.336Z,19.27
2018-07-21T00:24:00.312Z,19.13
2018-07-21T00:25:00.490Z,19.16
2018-07-21T00:26:00.267Z,19.13
2018-07-21T00:27:00.245Z,19.15
2018-07-21T00:28:00.215Z,19.17
2018-07-21T00:29:00.196Z,19.17
2018-07-21T00:30:00.173Z,19.30
2018-07-21T00:31:00.150Z,19.28
2018-07-21T00:32:00.125Z,19.32
2018-07-21T00:33:00.102Z,19.27
2018-07-21T00:34:00.079Z,19.25
2018-07-21T00:35:00.059Z,19.30
2018-07-21T00:36:00.035Z,19.38
2018-07-21T00:37:00.009Z,19.35
2018-07-21T00:37:59.984Z,19.34
2018-07-21T00:39:00.110Z,19.38
2018-07-21T00:39:59.936Z,19.34
2018-07-21T00:40:59.913Z,19.23
2018-07-21T00:41:59.894Z,19.17
2018-07-21T00:42:59.877Z,19.23
2018-07-21T00:43:59.846Z,19.20
2018-07-21T00:44:59.821Z,19.16
2018-07-21T00:45:59.798Z,19.20
2018-07-21T00:46:59.776Z,19.20
2018-07-21T00:47:59.749Z,19.17
2018-07-21T00:48:59.727Z,19.23
2018-07-21T00:49:59.704Z,19.24
2018-07-21T00:50:59.684Z,19.17
2018-07-21T00:51:59.656Z,19.13
2018-07-21T00:52:59.635Z,19.15
2018-07-21T00:53:59.613Z,19.01
2018-07-21T00:54:59.588Z,18.97
2018-07-21T00:55:59.564Z,18.87
2018-07-21T00:56:59.543Z,18.89
2018-07-21T00:57:59.516Z,18.84
2018-07-21T00:58:59.695Z,18.74
2018-07-21T00:59:59.469Z,18.65
2018-07-21T01:00:59.445Z,18.66
2018-07-21T01:01:59.424Z,18.68
2018-07-21T01:02:59.401Z,18.66
2018-07-21T01:03:59.377Z,18.78
2018-07-21T01:04:59.354Z,18.62
2018-07-21T01:05:59.533Z,18.62
2018-07-21T01:06:59.510Z,18.54
2018-07-21T01:07:59.288Z,18.47
2018-07-21T01:08:59.260Z,18.38
2018-07-21T01:09:59.234Z,18.44
2018-07-21T01:10:59.225Z,18.49
2018-07-21T01:11:59.186Z,18.39
2018-07-21T01:12:59.164Z,18.34
2018-07-21T01:13:59.147Z,18.32
2018-07-21T01:14:59.322Z,18.21
2018-07-21T01:15:59.297Z,18.28
2018-07-21T01:16:59.077Z,18.32
2018-07-21T01:17:59.053Z,18.23
2018-07-21T01:18:59.022Z,18.17
2018-07-21T01:19:58.996Z,18.11
2018-07-21T01:20:58.974Z,18.19
2018-07-21T01:22:00.169Z,18.25
2018-07-21T01:22:59.129Z,18.29
2018-07-21T01:23:58.907Z,18.25
2018-07-21T01:24:58.879Z,18.23
2018-07-21T01:25:58.858Z,18.36
2018-07-21T01:26:58.834Z,18.39
2018-07-21T01:27:58.810Z,18.41
2018-07-21T01:28:58.790Z,18.38
2018-07-21T01:29:58.761Z,18.42
2018-07-21T01:30:58.741Z,18.47
2018-07-21T01:31:58.715Z,18.50
2018-07-21T01:32:58.689Z,18.50
2018-07-21T01:33:58.669Z,18.57
2018-07-21T01:34:58.667Z,18.49
2018-07-21T01:35:58.620Z,18.38
2018-07-21T01:36:58.598Z,18.44
2018-07-21T01:37:58.575Z,18.38
2018-07-21T01:38:58.549Z,18.47
2018-07-21T01:39:58.527Z,18.41
2018-07-21T01:40:58.501Z,18.42
2018-07-21T01:41:58.489Z,18.46
2018-07-21T01:42:58.455Z,18.42
2018-07-21T01:43:58.732Z,18.42
2018-07-21T01:44:58.407Z,18.42
2018-07-21T01:45:58.390Z,18.47
2018-07-21T01:46:58.359Z,18.41
2018-07-21T01:47:58.334Z,18.56
2018-07-21T01:48:58.311Z,18.54
2018-07-21T01:49:58.289Z,18.62
2018-07-21T01:50:58.266Z,18.54
2018-07-21T01:51:58.243Z,18.57
2018-07-21T01:52:58.218Z,18.60
2018-07-21T01:53:58.197Z,18.59
2018-07-21T01:54:58.172Z,18.54
2018-07-21T01:55:58.149Z,18.56
2018-07-21T01:56:58.124Z,18.66
2018-07-21T01:57:58.100Z,18.57
2018-07-21T01:58:58.078Z,18.54
2018-07-21T01:59:58.051Z,18.53
2018-07-21T02:00:58.028Z,18.53
2018-07-21T02:01:58.007Z,18.64
2018-07-21T02:02:57.982Z,18.71
2018-07-21T02:03:57.958Z,18.71
2018-07-21T02:04:57.939Z,18.71
2018-07-21T02:05:57.910Z,18.68
2018-07-21T02:06:57.888Z,18.78
2018-07-21T02:07:57.866Z,18.74
2018-07-21T02:08:57.839Z,18.74
2018-07-21T02:09:57.818Z,18.72
2018-07-21T02:10:57.793Z,18.74
2018-07-21T02:11:57.769Z,18.76
2018-07-21T02:12:57.746Z,18.74
2018-07-21T02:13:57.724Z,18.76
2018-07-21T02:14:57.701Z,18.82
2018-07-21T02:15:57.677Z,18.74
2018-07-21T02:16:57.657Z,18.75
2018-07-21T02:17:57.628Z,18.79
2018-07-21T02:18:57.605Z,18.76
2018-07-21T02:19:57.580Z,18.75
2018-07-21T02:20:57.560Z,18.72
2018-07-21T02:21:57.539Z,18.71
2018-07-21T02:22:57.513Z,18.65
2018-07-21T02:23:57.489Z,18.65
2018-07-21T02:24:57.475Z,18.59
2018-07-21T02:25:57.443Z,18.64
2018-07-21T02:26:57.419Z,18.62
2018-07-21T02:27:57.394Z,18.59
2018-07-21T02:28:57.373Z,18.60
2018-07-21T02:29:57.346Z,18.64
2018-07-21T02:30:57.323Z,18.56
2018-07-21T02:31:57.299Z,18.57
2018-07-21T02:32:57.281Z,18.56
2018-07-21T02:33:57.255Z,18.59
2018-07-21T02:34:57.231Z,18.56
2018-07-21T02:35:57.206Z,18.62
2018-07-21T02:36:57.184Z,18.57
2018-07-21T02:37:57.159Z,18.46
2018-07-21T02:38:57.136Z,18.41
2018-07-21T02:39:57.113Z,18.56
2018-07-21T02:40:57.088Z,18.54
2018-07-21T02:41:57.064Z,18.66
2018-07-21T02:42:57.039Z,18.65
2018-07-21T02:43:57.016Z,18.64
2018-07-21T02:44:56.993Z,18.57
2018-07-21T02:45:56.972Z,18.57
2018-07-21T02:46:56.949Z,18.50
2018-07-21T02:47:56.925Z,18.54
2018-07-21T02:48:56.901Z,18.53
2018-07-21T02:49:56.875Z,18.54
2018-07-21T02:50:56.854Z,18.57
2018-07-21T02:51:56.828Z,18.42
2018-07-21T02:52:56.809Z,18.42
2018-07-21T02:53:56.835Z,18.41
2018-07-21T02:54:56.760Z,18.47
2018-07-21T02:55:56.736Z,18.39
2018-07-21T02:56:56.712Z,18.36
2018-07-21T02:57:56.696Z,18.34
2018-07-21T02:58:56.669Z,18.39
2018-07-21T02:59:56.644Z,18.42
2018-07-21T03:00:56.620Z,18.47
2018-07-21T03:01:56.591Z,18.41
2018-07-21T03:02:56.568Z,18.38
2018-07-21T03:03:56.544Z,18.44
2018-07-21T03:04:56.521Z,18.36
2018-07-21T03:05:56.499Z,18.35
2018-07-21T03:06:56.482Z,18.41
2018-07-21T03:07:56.454Z,18.38
2018-07-21T03:08:56.428Z,18.41
2018-07-21T03:09:56.432Z,18.38
2018-07-21T03:10:56.378Z,18.34
2018-07-21T03:11:56.505Z,18.38
2018-07-21T03:12:56.331Z,18.34
2018-07-21T03:13:56.307Z,18.36
2018-07-21T03:14:56.282Z,18.41
2018-07-21T03:15:56.258Z,18.38
2018-07-21T03:16:56.236Z,18.41
2018-07-21T03:17:56.217Z,18.42
2018-07-21T03:18:56.193Z,18.50
2018-07-21T03:19:56.167Z,18.50
2018-07-21T03:20:56.142Z,18.46
2018-07-21T03:21:56.119Z,18.47
2018-07-21T03:22:56.095Z,18.39
2018-07-21T03:23:56.068Z,18.46
2018-07-21T03:24:56.047Z,18.39
2018-07-21T03:25:56.047Z,18.39
2018-07-21T03:26:56.001Z,18.35
2018-07-21T03:27:55.976Z,18.35
2018-07-21T03:28:55.957Z,18.31
2018-07-21T03:29:55.931Z,18.21
2018-07-21T03:30:56.050Z,18.25
2018-07-21T03:31:55.884Z,18.29
2018-07-21T03:32:55.860Z,18.17
2018-07-21T03:33:55.878Z,18.26
2018-07-21T03:34:55.809Z,18.21
2018-07-21T03:35:55.785Z,18.29
2018-07-21T03:36:55.759Z,18.29
2018-07-21T03:37:55.739Z,18.39
2018-07-21T03:38:55.716Z,18.42
2018-07-21T03:39:55.690Z,18.38
2018-07-21T03:40:55.979Z,18.28
2018-07-21T03:41:55.643Z,18.36
2018-07-21T03:42:55.620Z,18.29
2018-07-21T03:43:55.594Z,18.28
2018-07-21T03:44:55.570Z,18.34
2018-07-21T03:45:55.550Z,18.34
2018-07-21T03:46:55.834Z,18.23
2018-07-21T03:47:55.502Z,18.34
2018-07-21T03:48:55.482Z,18.39
2018-07-21T03:49:55.452Z,18.38
2018-07-21T03:50:55.428Z,18.46
2018-07-21T03:51:55.403Z,18.59
2018-07-21T03:52:55.381Z,18.54
2018-07-21T03:53:55.359Z,18.46
2018-07-21T03:54:55.337Z,18.53
2018-07-21T03:55:55.312Z,18.53
2018-07-21T03:56:55.289Z,18.62
2018-07-21T03:57:55.264Z,18.56
2018-07-21T03:58:55.240Z,18.64
2018-07-21T03:59:55.217Z,18.62
2018-07-21T04:00:55.192Z,18.60
2018-07-21T04:01:55.171Z,18.68
2018-07-21T04:02:55.156Z,18.62
2018-07-21T04:03:55.123Z,18.53
2018-07-21T04:04:55.097Z,18.66
2018-07-21T04:05:55.077Z,18.57
2018-07-21T04:06:55.054Z,18.54
2018-07-21T04:07:55.030Z,18.50
2018-07-21T04:08:55.032Z,18.59
2018-07-21T04:09:54.981Z,18.54
2018-07-21T04:10:54.960Z,18.50
2018-07-21T04:11:54.936Z,18.54
2018-07-21T04:12:54.917Z,18.65
2018-07-21T04:13:54.896Z,18.76
2018-07-21T04:14:54.867Z,18.86
2018-07-21T04:15:54.844Z,18.86
2018-07-21T04:16:54.826Z,18.93
2018-07-21T04:17:54.796Z,18.86
2018-07-21T04:18:54.774Z,18.83
2018-07-21T04:19:54.751Z,18.79
2018-07-21T04:20:54.727Z,18.91
2018-07-21T04:21:54.702Z,18.75
2018-07-21T04:22:54.681Z,18.86
2018-07-21T04:23:54.655Z,18.84
2018-07-21T04:24:54.633Z,18.71
2018-07-21T04:25:54.610Z,18.68
2018-07-21T04:26:54.588Z,18.79
2018-07-21T04:27:54.564Z,18.84
2018-07-21T04:28:54.541Z,18.86
2018-07-21T04:29:54.517Z,18.87
2018-07-21T04:30:54.499Z,18.96
2018-07-21T04:31:54.469Z,18.99
2018-07-21T04:32:54.446Z,19.01
2018-07-21T04:33:54.424Z,19.01
2018-07-21T04:34:54.401Z,19.10
2018-07-21T04:35:54.377Z,19.05
2018-07-21T04:36:54.356Z,19.17
2018-07-21T04:37:54.337Z,19.20
2018-07-21T04:38:54.312Z,19.25
2018-07-21T04:39:54.292Z,19.27
2018-07-21T04:40:54.264Z,19.38
2018-07-21T04:41:54.239Z,19.42
2018-07-21T04:42:54.218Z,19.62
2018-07-21T04:43:54.399Z,19.62
2018-07-21T04:44:54.169Z,19.72
2018-07-21T04:45:54.151Z,19.75
2018-07-21T04:46:54.329Z,19.94
2018-07-21T04:47:54.103Z,20.10
2018-07-21T04:48:54.082Z,20.25
2018-07-21T04:49:54.060Z,20.53
2018-07-21T04:50:54.038Z,20.54
2018-07-21T04:51:54.015Z,20.63
2018-07-21T04:52:53.993Z,20.83
2018-07-21T04:53:53.983Z,20.71
2018-07-21T04:54:53.947Z,20.85
2018-07-21T04:55:53.925Z,20.79
2018-07-21T04:56:53.912Z,20.79
2018-07-21T04:57:54.086Z,20.72
2018-07-21T04:58:53.863Z,20.79
2018-07-21T04:59:53.842Z,20.83
2018-07-21T05:00:53.870Z,21.08
2018-07-21T05:01:53.794Z,21.01
2018-07-21T05:02:56.604Z,21.03
2018-07-21T05:03:56.843Z,20.85
2018-07-21T05:04:53.731Z,20.96
2018-07-21T05:05:53.708Z,21.12
2018-07-21T05:06:53.689Z,21.08
2018-07-21T05:07:53.667Z,21.26
2018-07-21T05:08:53.649Z,21.30
2018-07-21T05:09:53.628Z,20.98
2018-07-21T05:10:53.810Z,21.03
2018-07-21T05:11:53.586Z,21.28
2018-07-21T05:12:53.770Z,21.55
2018-07-21T05:13:56.365Z,21.82
2018-07-21T05:15:38.499Z,22.04
2018-07-21T05:18:42.318Z,21.19
2018-07-21T05:19:42.095Z,21.21
2018-07-21T05:20:42.073Z,21.09
2018-07-21T05:22:27.037Z,21.03
2018-07-21T05:24:06.543Z,20.82
2018-07-21T05:25:06.319Z,20.54
2018-07-21T05:26:06.298Z,20.54
2018-07-21T05:27:06.282Z,20.85
2018-07-21T05:28:06.261Z,20.91
2018-07-21T05:29:06.236Z,20.90
2018-07-21T05:30:06.217Z,20.78
2018-07-21T05:31:06.195Z,20.97
2018-07-21T05:32:06.179Z,21.09
2018-07-21T05:33:06.153Z,21.13
2018-07-21T05:34:06.132Z,20.83
2018-07-21T05:35:06.114Z,20.53
2018-07-21T05:36:06.093Z,20.37
2018-07-21T05:37:06.077Z,20.33
2018-07-21T05:38:06.053Z,20.23
2018-07-21T05:39:06.055Z,20.37
2018-07-21T05:40:06.013Z,20.57
2018-07-21T05:41:05.991Z,20.91
2018-07-21T06:17:56.002Z,23.03
2018-07-21T06:18:55.980Z,23.03
2018-07-21T06:19:55.958Z,23.16
2018-07-21T06:20:55.740Z,23.34
2018-07-21T06:21:55.921Z,23.49
2018-07-21T06:22:55.696Z,23.47
2018-07-21T06:23:55.882Z,23.62
2018-07-21T06:24:55.856Z,23.63
2018-07-21T06:25:55.841Z,23.41
2018-07-21T06:26:55.816Z,23.56
2018-07-21T06:27:55.800Z,23.69
2018-07-21T06:28:55.577Z,23.41
2018-07-21T06:29:55.557Z,23.23
2018-07-21T06:30:55.543Z,23.26
2018-07-21T06:31:55.518Z,23.14
2018-07-21T06:32:55.509Z,22.76
2018-07-21T06:33:55.479Z,22.89
2018-07-21T06:34:55.667Z,23.12
2018-07-21T06:35:55.439Z,22.88
2018-07-21T06:36:55.419Z,22.97
2018-07-21T06:37:55.601Z,22.93
2018-07-21T06:38:55.379Z,22.86
2018-07-21T06:39:55.360Z,23.14
2018-07-21T06:40:55.346Z,23.04
2018-07-21T06:41:55.326Z,23.16
2018-07-21T06:42:55.306Z,23.37
2018-07-21T06:43:55.505Z,23.38
2018-07-21T06:44:55.471Z,23.37
2018-07-21T06:45:55.248Z,23.31
2018-07-21T06:46:55.428Z,23.21
2018-07-21T06:47:55.410Z,23.29
2018-07-21T06:48:55.195Z,23.23
2018-07-21T06:49:55.171Z,23.69
2018-07-21T07:06:22.762Z,23.39
2018-07-21T07:07:22.542Z,23.57
2018-07-21T07:08:22.520Z,23.54
2018-07-21T07:09:22.505Z,23.45
2018-07-21T07:10:22.484Z,23.32
2018-07-21T07:11:22.464Z,23.26
2018-07-21T07:12:22.447Z,23.26
2018-07-21T07:13:22.424Z,23.38
2018-07-21T07:14:22.405Z,23.32
2018-07-21T07:15:22.589Z,23.31
2018-07-21T07:16:22.392Z,23.38
2018-07-21T07:17:22.354Z,23.62
2018-07-21T07:18:22.331Z,23.77
2018-07-21T07:19:22.318Z,23.79
2018-07-21T07:20:22.497Z,24.15
2018-07-21T07:21:22.273Z,24.19
2018-07-21T07:22:22.261Z,24.34
2018-07-21T07:23:22.438Z,24.68
2018-07-21T07:25:04.727Z,25.08
2018-07-21T07:26:04.556Z,24.92
2018-07-21T07:27:04.537Z,24.92
2018-07-21T07:28:04.521Z,24.86
2018-07-21T07:29:04.502Z,25.01
2018-07-21T07:30:04.282Z,25.27
2018-07-21T07:31:04.265Z,25.36
2018-07-21T07:32:04.250Z,25.16
2018-07-21T07:33:07.051Z,25.08
2018-07-21T07:34:04.410Z,25.26
2018-07-21T07:35:04.227Z,25.39
2018-07-21T07:36:04.378Z,25.02
2018-07-21T07:37:04.159Z,24.80
2018-07-21T07:38:04.359Z,24.86
2018-07-21T07:39:04.125Z,24.84
2018-07-21T07:40:04.110Z,24.56
2018-07-21T07:41:04.090Z,24.74
2018-07-21T07:42:04.173Z,24.97
2018-07-21T07:43:04.054Z,24.90
2018-07-21T07:44:04.044Z,24.74
2018-07-21T07:45:04.019Z,24.83
2018-07-21T07:46:04.001Z,24.90
2018-07-21T07:47:03.985Z,24.53
2018-07-21T07:48:03.969Z,24.49
2018-07-21T07:49:03.957Z,24.67
2018-07-21T07:50:03.936Z,25.05
2018-07-21T07:51:03.919Z,25.34
2018-07-21T07:52:03.900Z,25.20
2018-07-21T07:53:03.881Z,25.20
2018-07-21T07:54:03.867Z,25.14
2018-07-21T07:55:03.851Z,24.45
2018-07-21T07:56:03.831Z,24.61
2018-07-21T07:57:03.815Z,24.83
2018-07-21T07:58:03.798Z,24.75
2018-07-21T07:59:03.779Z,24.64
2018-07-21T08:00:03.766Z,24.70
2018-07-21T08:01:03.753Z,24.93
2018-07-21T08:02:03.732Z,24.59
2018-07-21T08:03:03.714Z,24.86
2018-07-21T08:04:03.694Z,24.94
2018-07-21T08:05:03.678Z,24.90
2018-07-21T08:06:03.661Z,25.30
2018-07-21T08:07:03.650Z,25.35
2018-07-21T08:08:03.630Z,25.08
2018-07-21T08:09:03.619Z,25.04
2018-07-21T08:10:03.595Z,25.05
2018-07-21T08:11:03.578Z,24.98
2018-07-21T08:12:03.564Z,25.16
2018-07-21T08:13:03.544Z,25.64
2018-07-21T08:14:03.538Z,25.57
2018-07-21T08:15:03.510Z,25.53
2018-07-21T08:16:03.492Z,25.85
2018-07-21T08:17:03.676Z,26.19
2018-07-21T08:18:03.457Z,26.12
2018-07-21T08:19:03.445Z,26.00
2018-07-21T08:20:03.428Z,26.21
2018-07-21T08:21:03.410Z,25.78
2018-07-21T08:22:03.393Z,25.53
2018-07-21T08:23:03.376Z,25.51
2018-07-21T08:24:03.361Z,25.35
2018-07-21T08:25:03.342Z,25.83
2018-07-21T08:26:03.327Z,26.24
2018-07-21T08:27:03.309Z,26.81
2018-07-21T08:28:03.497Z,26.86
2018-07-21T08:29:03.520Z,26.73
2018-07-21T08:30:03.469Z,27.02
2018-07-21T08:31:03.246Z,26.71
2018-07-21T08:32:03.430Z,27.40
2018-07-21T08:33:03.214Z,27.45
2018-07-21T08:34:06.829Z,27.39
2018-07-21T08:35:03.387Z,28.05
2018-07-21T08:36:03.371Z,28.03
2018-07-21T08:37:07.188Z,28.25
2018-07-21T08:38:03.338Z,28.11
2018-07-21T08:39:03.324Z,28.23
2018-07-21T08:40:03.305Z,28.50
2018-07-21T08:41:06.523Z,28.91
2018-07-21T08:42:03.276Z,28.79
2018-07-21T08:43:03.060Z,28.64
2018-07-21T08:44:04.461Z,28.23
2018-07-21T08:45:03.032Z,27.80
2018-07-21T08:46:03.016Z,27.96
2018-07-21T08:47:03.205Z,28.39
2018-07-21T08:50:09.670Z,29.23
2018-07-21T08:51:09.658Z,29.05
2018-07-21T08:52:09.641Z,28.50
2018-07-21T08:53:09.630Z,28.08
2018-07-21T08:54:09.413Z,28.06
2018-07-21T08:55:09.398Z,27.74
2018-07-21T08:56:09.461Z,27.40
2018-07-21T08:57:09.371Z,27.71
2018-07-21T08:58:09.357Z,27.69
2018-07-21T08:59:09.347Z,27.49
2018-07-21T09:00:09.329Z,27.52
2018-07-21T09:01:09.318Z,27.77
2018-07-21T09:02:09.303Z,28.25
2018-07-21T09:07:22.455Z,27.50
2018-07-21T09:08:22.435Z,27.30
2018-07-21T09:10:04.580Z,26.50
2018-07-21T09:11:04.566Z,26.27
2018-07-21T09:12:04.551Z,26.21
2018-07-21T09:13:04.391Z,26.44
2018-07-21T09:14:04.523Z,26.23
2018-07-21T09:15:04.313Z,26.32
2018-07-21T09:16:04.510Z,26.36
2018-07-21T09:17:04.478Z,26.23
2018-07-21T09:18:04.462Z,26.34
2018-07-21T09:19:04.446Z,26.31
2018-07-21T09:20:04.230Z,26.68
2018-07-21T09:21:04.216Z,26.88
2018-07-21T09:22:04.202Z,27.11
2018-07-21T09:23:04.184Z,27.61
2018-07-21T09:24:04.170Z,27.86
2018-07-21T09:25:04.160Z,27.96
2018-07-21T09:26:04.139Z,28.30
2018-07-21T09:27:04.123Z,28.61
2018-07-21T09:28:04.161Z,29.10
2018-07-21T09:29:04.091Z,29.26
2018-07-21T09:30:04.076Z,29.20
2018-07-21T09:31:04.059Z,29.05
2018-07-21T09:32:04.248Z,29.63
2018-07-21T09:33:04.236Z,30.08
2018-07-21T09:34:46.379Z,31.91
2018-07-21T09:35:46.365Z,30.73
2018-07-21T09:37:28.512Z,30.67
2018-07-21T09:39:14.089Z,31.01
2018-07-21T09:40:11.114Z,31.40
2018-07-21T09:41:10.634Z,32.09
2018-07-21T09:42:10.623Z,32.34
2018-07-21T09:43:10.610Z,31.00
2018-07-21T09:44:11.210Z,29.99
2018-07-21T09:45:10.586Z,29.41
2018-07-21T09:46:13.194Z,28.92
2018-07-21T09:47:10.359Z,28.82
2018-07-21T09:48:10.548Z,28.55
2018-07-21T09:49:10.579Z,27.99
2018-07-21T09:50:10.325Z,28.73
2018-07-21T09:51:10.313Z,28.88
2018-07-21T09:52:10.302Z,28.97
2018-07-21T09:53:12.910Z,29.85
2018-07-21T09:54:10.476Z,30.37
2018-07-21T09:55:10.263Z,30.30
2018-07-21T09:56:10.453Z,30.48
2018-07-21T09:59:17.124Z,30.01
2018-07-21T10:00:59.074Z,29.18
2018-07-21T10:01:59.060Z,29.05
2018-07-21T10:03:02.882Z,29.15
2018-07-21T10:04:01.660Z,29.37
2018-07-21T10:04:59.023Z,29.55
2018-07-21T10:05:58.806Z,29.95
2018-07-21T10:06:58.794Z,30.79
2018-07-21T10:07:58.984Z,31.22
2018-07-21T10:08:58.768Z,31.27
2018-07-21T10:09:58.754Z,31.50
2018-07-21T10:10:58.950Z,32.03
2018-07-21T10:12:01.558Z,31.35
2018-07-21T10:15:47.571Z,29.14
2018-07-21T10:16:47.555Z,29.35
2018-07-21T10:17:47.340Z,29.25
2018-07-21T10:18:47.333Z,29.88
2018-07-21T10:19:47.327Z,30.40
2018-07-21T10:20:47.305Z,30.78
2018-07-21T10:21:47.553Z,29.71
2018-07-21T10:23:29.645Z,30.29
2018-07-21T10:24:30.240Z,30.51
2018-07-21T10:25:32.246Z,30.97
2018-07-21T10:26:29.613Z,31.23
2018-07-21T10:27:29.602Z,31.07
2018-07-21T10:28:29.620Z,30.64
2018-07-21T10:29:29.580Z,30.67
2018-07-21T10:30:29.566Z,29.78
2018-07-21T10:31:29.354Z,29.15
2018-07-21T10:32:29.544Z,29.39
2018-07-21T10:33:29.587Z,29.33
2018-07-21T10:35:11.683Z,28.94
2018-07-21T10:36:11.672Z,28.87
2018-07-21T10:37:11.659Z,28.62
2018-07-21T10:38:12.926Z,28.62
2018-07-21T10:39:11.637Z,28.58
2018-07-21T10:40:11.624Z,28.51
2018-07-21T10:41:12.017Z,28.20
2018-07-21T10:42:11.596Z,28.30
2018-07-21T10:43:11.589Z,28.32
2018-07-21T10:44:11.572Z,28.65
2018-07-21T10:45:53.717Z,28.74
2018-07-21T10:46:53.703Z,28.70
2018-07-21T10:47:53.690Z,28.64
2018-07-21T10:48:53.680Z,28.73
2018-07-21T10:50:38.867Z,28.32
2018-07-21T10:51:35.811Z,28.09
2018-07-21T10:52:35.802Z,28.24
2018-07-21T10:53:35.785Z,28.24
2018-07-21T10:54:39.200Z,28.25
2018-07-21T10:55:35.752Z,28.38
2018-07-21T10:56:39.376Z,28.32
2018-07-21T10:58:17.881Z,28.45
2018-07-21T10:59:17.868Z,28.77
2018-07-21T11:00:17.872Z,28.94
2018-07-21T11:01:17.637Z,29.12
2018-07-21T11:02:17.625Z,29.17
2018-07-21T11:03:17.608Z,29.37
2018-07-21T11:04:17.594Z,29.41
2018-07-21T11:05:17.580Z,29.74
2018-07-21T11:06:17.565Z,29.41
2018-07-21T11:07:17.548Z,29.48
2018-07-21T11:08:17.533Z,30.15
2018-07-21T11:09:17.724Z,30.21
2018-07-21T11:10:17.719Z,30.18
2018-07-21T11:11:17.494Z,29.89
2018-07-21T11:12:17.683Z,29.89
2018-07-21T11:13:17.668Z,30.11
2018-07-21T11:14:20.277Z,29.76
2018-07-21T11:15:17.765Z,29.99
2018-07-21T11:16:17.631Z,30.49
2018-07-21T11:17:17.617Z,30.64
2018-07-21T11:18:17.600Z,30.36
2018-07-21T11:19:17.586Z,30.60
2018-07-21T11:20:17.574Z,30.16
2018-07-21T11:21:17.359Z,30.21
2018-07-21T11:22:17.355Z,30.34
2018-07-21T11:23:20.771Z,30.48
2018-07-21T11:24:17.526Z,30.30
2018-07-21T11:25:17.514Z,30.01
2018-07-21T11:26:17.295Z,29.95
2018-07-21T11:27:17.282Z,29.95
2018-07-21T11:28:17.273Z,29.92
2018-07-21T11:29:17.263Z,29.67
2018-07-21T11:30:17.246Z,29.32
2018-07-21T11:31:17.231Z,29.10
2018-07-21T11:32:17.216Z,29.02
2018-07-21T11:33:17.207Z,29.14
2018-07-21T11:34:17.393Z,29.25
2018-07-21T11:35:17.413Z,29.20
2018-07-21T11:36:17.566Z,28.85
2018-07-21T11:37:17.349Z,28.55
2018-07-21T11:38:17.337Z,28.21
2018-07-21T11:39:17.322Z,28.25
2018-07-21T11:40:17.311Z,28.24
2018-07-21T11:41:17.298Z,27.98
2018-07-21T11:42:17.080Z,28.20
2018-07-21T11:43:17.264Z,28.21
2018-07-21T11:44:17.058Z,28.27
2018-07-21T11:45:17.235Z,28.39
2018-07-21T11:46:17.222Z,28.65
2018-07-21T11:47:17.004Z,28.87
2018-07-21T11:48:16.988Z,29.05
2018-07-21T11:49:59.337Z,28.79
2018-07-21T11:50:59.115Z,28.67
2018-07-21T11:51:59.099Z,28.67
2018-07-21T11:52:59.093Z,28.70
2018-07-21T11:53:59.072Z,28.42
2018-07-21T11:54:59.055Z,28.36
2018-07-21T11:55:59.042Z,28.46
2018-07-21T11:56:59.024Z,28.54
2018-07-21T11:57:59.010Z,28.62
2018-07-21T11:58:58.994Z,28.64
2018-07-21T11:59:59.184Z,29.00
2018-07-21T12:00:59.168Z,29.20
2018-07-21T12:01:59.064Z,29.47
2018-07-21T12:02:59.136Z,29.66
2018-07-21T12:03:59.124Z,29.21
2018-07-21T12:04:59.109Z,29.37
2018-07-21T12:05:58.891Z,29.37
2018-07-21T12:06:58.876Z,29.39
2018-07-21T12:07:59.070Z,29.60
2018-07-21T12:08:58.844Z,29.86
2018-07-21T12:09:59.639Z,29.84
2018-07-21T12:10:59.015Z,30.06
2018-07-21T12:11:58.799Z,30.10
2018-07-21T12:12:59.061Z,29.67
2018-07-21T12:13:58.772Z,29.64
2018-07-21T12:14:58.959Z,29.11
2018-07-21T12:15:58.743Z,29.12
2018-07-21T12:16:58.928Z,29.08
2018-07-21T12:18:41.075Z,29.12
2018-07-21T12:19:40.856Z,29.00
2018-07-21T12:20:41.043Z,28.95
2018-07-21T12:21:41.032Z,29.10
2018-07-21T12:22:40.814Z,29.25
2018-07-21T12:23:40.798Z,29.14
2018-07-21T12:24:40.790Z,29.11
2018-07-21T12:25:40.768Z,29.17
2018-07-21T12:26:40.754Z,29.32
2018-07-21T12:27:40.808Z,29.42
2018-07-21T12:28:40.724Z,29.37
2018-07-21T12:29:40.711Z,29.18
2018-07-21T12:30:40.696Z,29.23
2018-07-21T12:31:40.680Z,29.15
2018-07-21T12:32:40.667Z,29.33
2018-07-21T12:33:40.674Z,29.52
2018-07-21T12:34:40.638Z,29.25
2018-07-21T12:35:40.623Z,29.36
2018-07-21T12:36:40.608Z,29.45
2018-07-21T12:37:40.592Z,29.58
2018-07-21T12:38:40.577Z,29.71
2018-07-21T12:39:40.563Z,29.91
2018-07-21T12:40:40.548Z,29.79
2018-07-21T12:41:41.141Z,29.95
2018-07-21T12:42:40.723Z,29.95
2018-07-21T12:43:40.511Z,29.81
2018-07-21T12:44:40.490Z,29.85
2018-07-21T12:45:40.479Z,29.70
2018-07-21T12:46:40.461Z,29.81
2018-07-21T12:47:40.446Z,30.13
2018-07-21T12:48:40.435Z,30.56
2018-07-21T12:49:40.619Z,30.44
2018-07-21T12:50:40.613Z,30.68
2018-07-21T12:51:40.592Z,30.64
2018-07-21T12:52:40.578Z,30.54
2018-07-21T12:53:40.365Z,30.90
2018-07-21T12:54:40.556Z,30.97
2018-07-21T12:55:40.337Z,30.56
2018-07-21T12:56:40.325Z,30.13
2018-07-21T12:57:40.511Z,30.44
2018-07-21T12:58:40.499Z,30.44
2018-07-21T12:59:40.283Z,30.28
2018-07-21T13:00:40.473Z,30.59
2018-07-21T13:01:40.260Z,31.10
2018-07-21T13:02:40.451Z,31.15
2018-07-21T13:03:40.435Z,31.40
2018-07-21T13:05:22.588Z,31.71
2018-07-21T13:06:22.570Z,31.49
2018-07-21T13:07:22.557Z,31.62
2018-07-21T13:08:22.551Z,31.37
2018-07-21T13:09:22.338Z,31.40
2018-07-21T13:11:04.685Z,31.16
2018-07-21T13:12:04.674Z,31.04
2018-07-21T13:13:04.659Z,31.15
2018-07-21T13:14:46.810Z,31.76
2018-07-21T13:16:28.963Z,31.74
2018-07-21T13:17:28.964Z,31.67
2018-07-21T13:18:28.939Z,31.09
2018-07-21T13:19:28.729Z,30.59
2018-07-21T13:20:28.718Z,30.28
2018-07-21T13:21:28.707Z,30.32
2018-07-21T13:22:28.701Z,29.89
2018-07-21T13:23:28.682Z,29.89
2018-07-21T13:24:28.673Z,30.10
2018-07-21T13:25:28.863Z,30.06
2018-07-21T13:26:28.850Z,30.07
2018-07-21T13:27:28.843Z,30.32
2018-07-21T13:28:28.832Z,30.42
2018-07-21T13:29:28.819Z,30.68
2018-07-21T13:30:28.807Z,30.75
2018-07-21T13:31:28.799Z,30.32
2018-07-21T13:32:28.784Z,30.23
2018-07-21T13:33:28.770Z,30.18
2018-07-21T13:34:28.764Z,30.25
2018-07-21T13:35:28.744Z,30.51
2018-07-21T13:36:28.730Z,30.75
2018-07-21T13:37:28.793Z,30.97
2018-07-21T13:38:28.708Z,31.07
2018-07-21T13:39:28.694Z,31.28
2018-07-21T13:40:28.481Z,31.15
2018-07-21T13:41:28.670Z,31.13
2018-07-21T13:42:28.656Z,30.66
2018-07-21T13:43:28.644Z,30.79
2018-07-21T13:44:28.429Z,30.79
2018-07-21T13:45:28.422Z,30.64
2018-07-21T13:46:28.406Z,30.90
2018-07-21T13:47:28.394Z,30.90
2018-07-21T13:48:28.380Z,30.66
2018-07-21T13:49:28.367Z,30.13
2018-07-21T13:50:28.355Z,29.95
2018-07-21T13:51:28.349Z,30.29
2018-07-21T13:52:28.332Z,30.40
2018-07-21T13:53:28.319Z,30.48
2018-07-21T13:54:28.308Z,30.63
2018-07-21T13:55:28.495Z,30.40
2018-07-21T13:56:28.484Z,30.23
2018-07-21T13:57:28.470Z,30.45
2018-07-21T13:58:28.458Z,30.76
2018-07-21T13:59:28.448Z,30.85
2018-07-21T14:00:28.439Z,30.86
2018-07-21T14:01:28.420Z,30.75
2018-07-21T14:02:28.207Z,30.79
2018-07-21T14:03:28.195Z,30.66
2018-07-21T14:04:28.385Z,30.72
2018-07-21T14:05:28.373Z,30.54
2018-07-21T14:06:28.160Z,30.66
2018-07-21T14:07:28.142Z,30.67
2018-07-21T14:08:28.132Z,30.61
2018-07-21T14:09:28.332Z,30.79
2018-07-21T14:10:28.309Z,30.61